sensor_id;sensor_type;location;lat;lon;timestamp;temperature;humidity
59847;DHT22;45728;48.788;2.302;2023-10-31T00:01:22;10.40;99.90
59847;DHT22;45728;48.788;2.302;2023-10-31T00:03:48;10.30;99.90
59847;DHT22;45728;48.788;2.302;2023-10-31T00:06:14;10.30;99.90
59847;DHT22;45728;48.788;2.302;2023-10-31T00:08:40;10.30;99.90
59847;DHT22;45728;48.788;2.302;2023-10-31T00:11:06;10.30;99.90
59847;DHT22;45728;48.788;2.302;2023-10-31T00:13:31;10.20;99.90
59847;DHT22;45728;48.788;2.302;2023-10-31T00:15:57;10.20;99.90
59847;DHT22;45728;48.788;2.302;2023-10-31T00:18:23;10.10;99.90
59847;DHT22;45728;48.788;2.302;2023-10-31T00:20:49;10.10;99.90
59847;DHT22;45728;48.788;2.302;2023-10-31T00:23:15;10.10;99.90
59847;DHT22;45728;48.788;2.302;2023-10-31T00:25:41;10.10;99.90
59847;DHT22;45728;48.788;2.302;2023-10-31T00:28:07;10.10;99.90
59847;DHT22;45728;48.788;2.302;2023-10-31T00:30:33;10.10;99.90
59847;DHT22;45728;48.788;2.302;2023-10-31T00:32:59;10.10;99.90
59847;DHT22;45728;48.788;2.302;2023-10-31T00:35:24;10.10;99.90
59847;DHT22;45728;48.788;2.302;2023-10-31T00:37:50;10.10;99.90
59847;DHT22;45728;48.788;2.302;2023-10-31T00:40:16;10.10;99.90
59847;DHT22;45728;48.788;2.302;2023-10-31T00:42:43;10.10;99.90
59847;DHT22;45728;48.788;2.302;2023-10-31T00:45:09;10.10;99.90
59847;DHT22;45728;48.788;2.302;2023-10-31T00:47:35;10.10;99.90
59847;DHT22;45728;48.788;2.302;2023-10-31T00:50:02;10.00;99.90
59847;DHT22;45728;48.788;2.302;2023-10-31T00:52:28;10.00;99.90
59847;DHT22;45728;48.788;2.302;2023-10-31T00:54:54;9.90;99.90
59847;DHT22;45728;48.788;2.302;2023-10-31T00:57:19;10.00;99.90
59847;DHT22;45728;48.788;2.302;2023-10-31T00:59:45;9.90;99.90
59847;DHT22;45728;48.788;2.302;2023-10-31T01:02:11;9.90;99.90
59847;DHT22;45728;48.788;2.302;2023-10-31T01:04:37;9.80;99.90
59847;DHT22;45728;48.788;2.302;2023-10-31T01:07:03;9.80;99.90
59847;DHT22;45728;48.788;2.302;2023-10-31T01:09:29;9.80;99.90
59847;DHT22;45728;48.788;2.302;2023-10-31T01:11:55;9.80;99.90
59847;DHT22;45728;48.788;2.302;2023-10-31T01:14:20;9.70;99.90
59847;DHT22;45728;48.788;2.302;2023-10-31T01:16:46;9.60;99.90
59847;DHT22;45728;48.788;2.302;2023-10-31T01:19:12;9.60;99.90
59847;DHT22;45728;48.788;2.302;2023-10-31T01:21:38;9.60;99.90
59847;DHT22;45728;48.788;2.302;2023-10-31T01:24:04;9.60;99.90
59847;DHT22;45728;48.788;2.302;2023-10-31T01:26:30;9.60;99.90
59847;DHT22;45728;48.788;2.302;2023-10-31T01:28:56;9.60;99.90
59847;DHT22;45728;48.788;2.302;2023-10-31T01:31:22;9.60;99.90
59847;DHT22;45728;48.788;2.302;2023-10-31T01:33:48;9.60;99.90
59847;DHT22;45728;48.788;2.302;2023-10-31T01:36:14;9.50;99.90
59847;DHT22;45728;48.788;2.302;2023-10-31T01:38:40;9.50;99.90
59847;DHT22;45728;48.788;2.302;2023-10-31T01:41:06;9.50;99.90
59847;DHT22;45728;48.788;2.302;2023-10-31T01:43:35;9.40;99.90
59847;DHT22;45728;48.788;2.302;2023-10-31T01:46:01;9.40;99.90
59847;DHT22;45728;48.788;2.302;2023-10-31T01:48:30;9.30;99.90
59847;DHT22;45728;48.788;2.302;2023-10-31T01:50:56;9.30;99.90
59847;DHT22;45728;48.788;2.302;2023-10-31T01:53:24;9.40;99.90
59847;DHT22;45728;48.788;2.302;2023-10-31T01:55:50;9.30;99.90
59847;DHT22;45728;48.788;2.302;2023-10-31T01:58:17;9.30;99.90
59847;DHT22;45728;48.788;2.302;2023-10-31T02:00:43;9.40;99.90
59847;DHT22;45728;48.788;2.302;2023-10-31T02:03:09;9.40;99.90
59847;DHT22;45728;48.788;2.302;2023-10-31T02:05:35;9.40;99.90
59847;DHT22;45728;48.788;2.302;2023-10-31T02:08:01;9.40;99.90
59847;DHT22;45728;48.788;2.302;2023-10-31T02:10:27;9.50;99.90
59847;DHT22;45728;48.788;2.302;2023-10-31T02:12:53;9.50;99.90
59847;DHT22;45728;48.788;2.302;2023-10-31T02:15:19;9.50;99.90
59847;DHT22;45728;48.788;2.302;2023-10-31T02:17:45;9.50;99.90
59847;DHT22;45728;48.788;2.302;2023-10-31T02:20:11;9.50;99.90
59847;DHT22;45728;48.788;2.302;2023-10-31T02:22:36;9.50;99.90
59847;DHT22;45728;48.788;2.302;2023-10-31T02:25:02;9.50;99.90
59847;DHT22;45728;48.788;2.302;2023-10-31T02:27:28;9.60;99.90
59847;DHT22;45728;48.788;2.302;2023-10-31T02:29:54;9.50;99.90
59847;DHT22;45728;48.788;2.302;2023-10-31T02:32:20;9.60;99.90
59847;DHT22;45728;48.788;2.302;2023-10-31T02:34:46;9.60;99.90
59847;DHT22;45728;48.788;2.302;2023-10-31T02:37:12;9.60;99.90
59847;DHT22;45728;48.788;2.302;2023-10-31T02:39:38;9.70;99.90
59847;DHT22;45728;48.788;2.302;2023-10-31T02:42:04;9.70;99.90
59847;DHT22;45728;48.788;2.302;2023-10-31T02:44:30;9.70;99.90
59847;DHT22;45728;48.788;2.302;2023-10-31T02:46:55;9.70;99.90
59847;DHT22;45728;48.788;2.302;2023-10-31T02:49:21;9.80;99.90
59847;DHT22;45728;48.788;2.302;2023-10-31T02:51:47;9.80;99.90
59847;DHT22;45728;48.788;2.302;2023-10-31T02:54:13;9.80;99.90
59847;DHT22;45728;48.788;2.302;2023-10-31T02:56:39;9.80;99.90
59847;DHT22;45728;48.788;2.302;2023-10-31T02:59:05;9.80;99.90
59847;DHT22;45728;48.788;2.302;2023-10-31T03:01:31;9.90;99.90
59847;DHT22;45728;48.788;2.302;2023-10-31T03:03:57;9.90;99.90
59847;DHT22;45728;48.788;2.302;2023-10-31T03:06:22;9.90;99.90
59847;DHT22;45728;48.788;2.302;2023-10-31T03:08:48;10.00;99.90
59847;DHT22;45728;48.788;2.302;2023-10-31T03:11:23;10.00;99.90
59847;DHT22;45728;48.788;2.302;2023-10-31T03:13:50;10.00;99.90
59847;DHT22;45728;48.788;2.302;2023-10-31T03:16:16;10.00;99.90
59847;DHT22;45728;48.788;2.302;2023-10-31T03:18:42;10.10;99.90
59847;DHT22;45728;48.788;2.302;2023-10-31T03:21:08;10.10;99.90
59847;DHT22;45728;48.788;2.302;2023-10-31T03:23:33;10.10;99.90
59847;DHT22;45728;48.788;2.302;2023-10-31T03:26:00;10.10;99.90
59847;DHT22;45728;48.788;2.302;2023-10-31T03:28:26;10.20;99.90
59847;DHT22;45728;48.788;2.302;2023-10-31T03:30:53;10.20;99.90
59847;DHT22;45728;48.788;2.302;2023-10-31T03:33:18;10.20;99.90
59847;DHT22;45728;48.788;2.302;2023-10-31T03:35:45;10.20;99.90
59847;DHT22;45728;48.788;2.302;2023-10-31T03:38:10;10.20;99.90
59847;DHT22;45728;48.788;2.302;2023-10-31T03:40:36;10.20;99.90
59847;DHT22;45728;48.788;2.302;2023-10-31T03:43:02;10.30;99.90
59847;DHT22;45728;48.788;2.302;2023-10-31T03:45:29;10.30;99.90
59847;DHT22;45728;48.788;2.302;2023-10-31T03:47:55;10.30;99.90
59847;DHT22;45728;48.788;2.302;2023-10-31T03:50:21;10.30;99.90
59847;DHT22;45728;48.788;2.302;2023-10-31T03:52:47;10.30;99.90
59847;DHT22;45728;48.788;2.302;2023-10-31T03:55:12;10.30;99.90
59847;DHT22;45728;48.788;2.302;2023-10-31T03:57:38;10.30;99.90
59847;DHT22;45728;48.788;2.302;2023-10-31T04:00:04;10.30;99.90
59847;DHT22;45728;48.788;2.302;2023-10-31T04:02:33;10.30;99.90
59847;DHT22;45728;48.788;2.302;2023-10-31T04:04:58;10.40;99.90
59847;DHT22;45728;48.788;2.302;2023-10-31T04:07:24;10.30;99.90
59847;DHT22;45728;48.788;2.302;2023-10-31T04:09:50;10.30;99.90
59847;DHT22;45728;48.788;2.302;2023-10-31T04:12:16;10.30;99.90
59847;DHT22;45728;48.788;2.302;2023-10-31T04:14:42;10.40;99.90
59847;DHT22;45728;48.788;2.302;2023-10-31T04:17:08;10.40;99.90
59847;DHT22;45728;48.788;2.302;2023-10-31T04:19:36;10.40;99.90
59847;DHT22;45728;48.788;2.302;2023-10-31T04:22:02;10.40;99.90
59847;DHT22;45728;48.788;2.302;2023-10-31T04:24:27;10.40;99.90
59847;DHT22;45728;48.788;2.302;2023-10-31T04:26:53;10.40;99.90
59847;DHT22;45728;48.788;2.302;2023-10-31T04:29:19;10.40;99.90
59847;DHT22;45728;48.788;2.302;2023-10-31T04:31:45;10.40;99.90
59847;DHT22;45728;48.788;2.302;2023-10-31T04:34:11;10.40;99.90
59847;DHT22;45728;48.788;2.302;2023-10-31T04:36:37;10.40;99.90
59847;DHT22;45728;48.788;2.302;2023-10-31T04:39:03;10.50;99.90
59847;DHT22;45728;48.788;2.302;2023-10-31T04:41:30;10.50;99.90
59847;DHT22;45728;48.788;2.302;2023-10-31T04:43:55;10.50;99.90
59847;DHT22;45728;48.788;2.302;2023-10-31T04:46:22;10.50;99.90
59847;DHT22;45728;48.788;2.302;2023-10-31T04:48:47;10.50;99.90
59847;DHT22;45728;48.788;2.302;2023-10-31T04:51:13;10.50;99.90
59847;DHT22;45728;48.788;2.302;2023-10-31T04:53:39;10.50;99.90
59847;DHT22;45728;48.788;2.302;2023-10-31T04:56:11;10.50;99.90
59847;DHT22;45728;48.788;2.302;2023-10-31T04:58:37;10.50;99.90
59847;DHT22;45728;48.788;2.302;2023-10-31T05:01:03;10.50;99.90
59847;DHT22;45728;48.788;2.302;2023-10-31T05:03:32;10.60;99.90
59847;DHT22;45728;48.788;2.302;2023-10-31T05:05:58;10.60;99.90
59847;DHT22;45728;48.788;2.302;2023-10-31T05:08:25;10.60;99.90
59847;DHT22;45728;48.788;2.302;2023-10-31T05:10:51;10.60;99.90
59847;DHT22;45728;48.788;2.302;2023-10-31T05:13:16;10.60;99.90
59847;DHT22;45728;48.788;2.302;2023-10-31T05:15:42;10.60;99.90
59847;DHT22;45728;48.788;2.302;2023-10-31T05:18:08;10.60;99.90
59847;DHT22;45728;48.788;2.302;2023-10-31T05:20:34;10.70;99.90
59847;DHT22;45728;48.788;2.302;2023-10-31T05:23:00;10.70;99.90
59847;DHT22;45728;48.788;2.302;2023-10-31T05:25:26;10.70;99.90
59847;DHT22;45728;48.788;2.302;2023-10-31T05:27:52;10.70;99.90
59847;DHT22;45728;48.788;2.302;2023-10-31T05:30:18;10.70;99.90
59847;DHT22;45728;48.788;2.302;2023-10-31T05:32:44;10.80;99.90
59847;DHT22;45728;48.788;2.302;2023-10-31T05:35:10;10.70;99.90
59847;DHT22;45728;48.788;2.302;2023-10-31T05:37:36;10.80;99.90
59847;DHT22;45728;48.788;2.302;2023-10-31T05:40:02;10.80;99.90
59847;DHT22;45728;48.788;2.302;2023-10-31T05:42:28;10.80;99.90
59847;DHT22;45728;48.788;2.302;2023-10-31T05:44:54;10.80;99.90
59847;DHT22;45728;48.788;2.302;2023-10-31T05:47:20;10.80;99.90
59847;DHT22;45728;48.788;2.302;2023-10-31T05:49:46;10.80;99.90
59847;DHT22;45728;48.788;2.302;2023-10-31T05:52:12;10.80;99.90
59847;DHT22;45728;48.788;2.302;2023-10-31T05:54:37;10.80;99.90
59847;DHT22;45728;48.788;2.302;2023-10-31T05:57:03;10.80;99.90
59847;DHT22;45728;48.788;2.302;2023-10-31T05:59:29;10.80;99.90
59847;DHT22;45728;48.788;2.302;2023-10-31T06:01:55;10.90;99.90
59847;DHT22;45728;48.788;2.302;2023-10-31T06:04:21;10.90;99.90
59847;DHT22;45728;48.788;2.302;2023-10-31T06:06:47;10.90;99.90
59847;DHT22;45728;48.788;2.302;2023-10-31T06:09:13;10.90;99.90
59847;DHT22;45728;48.788;2.302;2023-10-31T06:11:42;10.90;99.90
59847;DHT22;45728;48.788;2.302;2023-10-31T06:14:10;10.90;99.90
59847;DHT22;45728;48.788;2.302;2023-10-31T06:16:43;10.90;99.90
59847;DHT22;45728;48.788;2.302;2023-10-31T06:19:09;10.90;99.90
59847;DHT22;45728;48.788;2.302;2023-10-31T06:21:35;10.90;99.90
59847;DHT22;45728;48.788;2.302;2023-10-31T06:24:01;10.90;99.90
59847;DHT22;45728;48.788;2.302;2023-10-31T06:26:28;10.90;99.90
59847;DHT22;45728;48.788;2.302;2023-10-31T06:28:53;10.90;99.90
59847;DHT22;45728;48.788;2.302;2023-10-31T06:31:19;10.90;99.90
59847;DHT22;45728;48.788;2.302;2023-10-31T06:33:46;10.90;99.90
59847;DHT22;45728;48.788;2.302;2023-10-31T06:36:11;10.90;99.90
59847;DHT22;45728;48.788;2.302;2023-10-31T06:38:37;10.90;99.90
59847;DHT22;45728;48.788;2.302;2023-10-31T06:41:03;10.90;99.90
59847;DHT22;45728;48.788;2.302;2023-10-31T06:43:29;11.00;99.90
59847;DHT22;45728;48.788;2.302;2023-10-31T06:45:55;11.00;99.90
59847;DHT22;45728;48.788;2.302;2023-10-31T06:48:21;11.00;99.90
59847;DHT22;45728;48.788;2.302;2023-10-31T06:50:47;11.00;99.90
59847;DHT22;45728;48.788;2.302;2023-10-31T06:53:13;11.00;99.90
59847;DHT22;45728;48.788;2.302;2023-10-31T06:55:38;11.00;99.90
59847;DHT22;45728;48.788;2.302;2023-10-31T06:58:04;11.00;99.90
59847;DHT22;45728;48.788;2.302;2023-10-31T07:00:30;11.00;99.90
59847;DHT22;45728;48.788;2.302;2023-10-31T07:02:57;11.00;99.90
59847;DHT22;45728;48.788;2.302;2023-10-31T07:05:24;11.00;99.90
59847;DHT22;45728;48.788;2.302;2023-10-31T07:07:50;11.00;99.90
59847;DHT22;45728;48.788;2.302;2023-10-31T07:10:16;11.00;99.90
59847;DHT22;45728;48.788;2.302;2023-10-31T07:12:42;11.10;99.90
59847;DHT22;45728;48.788;2.302;2023-10-31T07:15:08;11.10;99.90
59847;DHT22;45728;48.788;2.302;2023-10-31T07:17:34;11.10;99.90
59847;DHT22;45728;48.788;2.302;2023-10-31T07:20:00;11.10;99.90
59847;DHT22;45728;48.788;2.302;2023-10-31T07:22:25;11.10;99.90
59847;DHT22;45728;48.788;2.302;2023-10-31T07:24:51;11.10;99.90
59847;DHT22;45728;48.788;2.302;2023-10-31T07:27:17;11.10;99.90
59847;DHT22;45728;48.788;2.302;2023-10-31T07:29:43;11.20;99.90
59847;DHT22;45728;48.788;2.302;2023-10-31T07:32:10;11.20;99.90
59847;DHT22;45728;48.788;2.302;2023-10-31T07:34:39;11.20;99.90
59847;DHT22;45728;48.788;2.302;2023-10-31T07:37:05;11.20;99.90
59847;DHT22;45728;48.788;2.302;2023-10-31T07:39:31;11.30;99.90
59847;DHT22;45728;48.788;2.302;2023-10-31T07:41:57;11.30;99.90
59847;DHT22;45728;48.788;2.302;2023-10-31T07:44:23;11.30;99.90
59847;DHT22;45728;48.788;2.302;2023-10-31T07:46:49;11.30;99.90
59847;DHT22;45728;48.788;2.302;2023-10-31T07:49:15;11.30;99.90
59847;DHT22;45728;48.788;2.302;2023-10-31T07:51:41;11.30;99.90
59847;DHT22;45728;48.788;2.302;2023-10-31T07:54:06;11.40;99.90
59847;DHT22;45728;48.788;2.302;2023-10-31T07:56:34;11.40;99.90
59847;DHT22;45728;48.788;2.302;2023-10-31T07:59:02;11.40;99.90
59847;DHT22;45728;48.788;2.302;2023-10-31T08:01:28;11.40;99.90
59847;DHT22;45728;48.788;2.302;2023-10-31T08:03:54;11.40;99.90
59847;DHT22;45728;48.788;2.302;2023-10-31T08:06:19;11.50;99.90
59847;DHT22;45728;48.788;2.302;2023-10-31T08:08:45;11.50;99.90
59847;DHT22;45728;48.788;2.302;2023-10-31T08:11:11;11.50;99.90
59847;DHT22;45728;48.788;2.302;2023-10-31T08:13:37;11.50;99.90
59847;DHT22;45728;48.788;2.302;2023-10-31T08:16:04;11.60;99.90
59847;DHT22;45728;48.788;2.302;2023-10-31T08:18:30;11.60;99.90
59847;DHT22;45728;48.788;2.302;2023-10-31T08:20:56;11.60;99.90
59847;DHT22;45728;48.788;2.302;2023-10-31T08:23:22;11.60;99.90
59847;DHT22;45728;48.788;2.302;2023-10-31T08:25:48;11.60;99.90
59847;DHT22;45728;48.788;2.302;2023-10-31T08:28:14;11.60;99.90
59847;DHT22;45728;48.788;2.302;2023-10-31T08:30:40;11.70;99.90
59847;DHT22;45728;48.788;2.302;2023-10-31T08:33:06;11.70;99.90
59847;DHT22;45728;48.788;2.302;2023-10-31T08:35:32;11.60;99.90
59847;DHT22;45728;48.788;2.302;2023-10-31T08:37:58;11.60;99.90
59847;DHT22;45728;48.788;2.302;2023-10-31T08:40:24;11.70;99.90
59847;DHT22;45728;48.788;2.302;2023-10-31T08:42:50;11.70;99.90
59847;DHT22;45728;48.788;2.302;2023-10-31T08:45:16;11.80;99.90
59847;DHT22;45728;48.788;2.302;2023-10-31T08:47:41;11.80;99.90
59847;DHT22;45728;48.788;2.302;2023-10-31T08:50:07;11.80;99.90
59847;DHT22;45728;48.788;2.302;2023-10-31T08:52:37;11.80;99.90
59847;DHT22;45728;48.788;2.302;2023-10-31T08:55:03;11.90;99.90
59847;DHT22;45728;48.788;2.302;2023-10-31T08:57:29;11.90;99.90
59847;DHT22;45728;48.788;2.302;2023-10-31T08:59:55;11.90;99.90
59847;DHT22;45728;48.788;2.302;2023-10-31T09:02:21;12.00;99.90
59847;DHT22;45728;48.788;2.302;2023-10-31T09:04:47;12.00;99.90
59847;DHT22;45728;48.788;2.302;2023-10-31T09:07:13;12.10;99.90
59847;DHT22;45728;48.788;2.302;2023-10-31T09:09:39;12.10;99.90
59847;DHT22;45728;48.788;2.302;2023-10-31T09:12:05;12.20;99.90
59847;DHT22;45728;48.788;2.302;2023-10-31T09:14:31;12.20;99.90
59847;DHT22;45728;48.788;2.302;2023-10-31T09:16:57;12.20;99.90
59847;DHT22;45728;48.788;2.302;2023-10-31T09:19:23;12.20;99.90
59847;DHT22;45728;48.788;2.302;2023-10-31T09:21:49;12.20;99.90
59847;DHT22;45728;48.788;2.302;2023-10-31T09:24:15;12.30;99.90
59847;DHT22;45728;48.788;2.302;2023-10-31T09:26:41;12.30;99.90
59847;DHT22;45728;48.788;2.302;2023-10-31T09:29:07;12.30;99.90
59847;DHT22;45728;48.788;2.302;2023-10-31T09:31:33;12.30;99.90
59847;DHT22;45728;48.788;2.302;2023-10-31T09:33:59;12.30;99.90
59847;DHT22;45728;48.788;2.302;2023-10-31T09:36:25;12.30;99.90
59847;DHT22;45728;48.788;2.302;2023-10-31T09:38:51;12.30;99.90
59847;DHT22;45728;48.788;2.302;2023-10-31T09:41:18;12.30;99.90
59847;DHT22;45728;48.788;2.302;2023-10-31T09:43:44;12.30;99.90
59847;DHT22;45728;48.788;2.302;2023-10-31T09:46:10;12.40;99.90
59847;DHT22;45728;48.788;2.302;2023-10-31T09:48:36;12.40;99.90
59847;DHT22;45728;48.788;2.302;2023-10-31T09:51:02;12.50;99.90
59847;DHT22;45728;48.788;2.302;2023-10-31T09:53:27;12.50;99.90
59847;DHT22;45728;48.788;2.302;2023-10-31T09:55:55;12.40;99.90
59847;DHT22;45728;48.788;2.302;2023-10-31T09:58:22;12.50;99.90
59847;DHT22;45728;48.788;2.302;2023-10-31T10:00:48;12.60;99.90
59847;DHT22;45728;48.788;2.302;2023-10-31T10:03:14;12.80;99.90
59847;DHT22;45728;48.788;2.302;2023-10-31T10:05:40;12.90;99.90
59847;DHT22;45728;48.788;2.302;2023-10-31T10:08:09;13.00;99.90
59847;DHT22;45728;48.788;2.302;2023-10-31T10:10:35;13.10;99.90
59847;DHT22;45728;48.788;2.302;2023-10-31T10:13:02;13.10;99.90
59847;DHT22;45728;48.788;2.302;2023-10-31T10:15:29;13.40;99.90
59847;DHT22;45728;48.788;2.302;2023-10-31T10:17:54;13.50;99.90
59847;DHT22;45728;48.788;2.302;2023-10-31T10:20:20;13.50;99.90
59847;DHT22;45728;48.788;2.302;2023-10-31T10:22:46;13.60;99.90
59847;DHT22;45728;48.788;2.302;2023-10-31T10:25:16;13.60;99.90
59847;DHT22;45728;48.788;2.302;2023-10-31T10:27:43;13.60;99.90
59847;DHT22;45728;48.788;2.302;2023-10-31T10:30:09;13.90;99.90
59847;DHT22;45728;48.788;2.302;2023-10-31T10:32:35;14.10;99.90
59847;DHT22;45728;48.788;2.302;2023-10-31T10:35:01;14.20;99.90
59847;DHT22;45728;48.788;2.302;2023-10-31T10:37:27;14.20;99.90
59847;DHT22;45728;48.788;2.302;2023-10-31T10:39:53;14.20;99.90
59847;DHT22;45728;48.788;2.302;2023-10-31T10:42:31;14.20;99.90
59847;DHT22;45728;48.788;2.302;2023-10-31T10:44:58;14.20;99.90
59847;DHT22;45728;48.788;2.302;2023-10-31T10:47:27;14.30;99.90
59847;DHT22;45728;48.788;2.302;2023-10-31T10:49:54;14.00;99.90
59847;DHT22;45728;48.788;2.302;2023-10-31T10:52:23;13.80;99.90
59847;DHT22;45728;48.788;2.302;2023-10-31T10:54:54;13.60;99.90
59847;DHT22;45728;48.788;2.302;2023-10-31T11:00:09;13.60;99.90
59847;DHT22;45728;48.788;2.302;2023-10-31T11:02:40;13.60;99.90
59847;DHT22;45728;48.788;2.302;2023-10-31T11:05:08;13.70;99.90
59847;DHT22;45728;48.788;2.302;2023-10-31T11:07:35;13.80;99.90
59847;DHT22;45728;48.788;2.302;2023-10-31T11:12:47;14.00;99.90
59847;DHT22;45728;48.788;2.302;2023-10-31T11:15:15;14.10;99.90
59847;DHT22;45728;48.788;2.302;2023-10-31T11:17:42;14.10;99.90
59847;DHT22;45728;48.788;2.302;2023-10-31T11:20:10;14.20;99.90
59847;DHT22;45728;48.788;2.302;2023-10-31T11:22:37;14.50;99.90
59847;DHT22;45728;48.788;2.302;2023-10-31T11:25:03;14.60;99.90
59847;DHT22;45728;48.788;2.302;2023-10-31T11:27:29;14.60;99.90
59847;DHT22;45728;48.788;2.302;2023-10-31T11:29:59;14.70;99.90
59847;DHT22;45728;48.788;2.302;2023-10-31T11:32:25;14.80;99.90
59847;DHT22;45728;48.788;2.302;2023-10-31T11:34:52;14.90;99.90
59847;DHT22;45728;48.788;2.302;2023-10-31T11:37:25;14.90;99.90
59847;DHT22;45728;48.788;2.302;2023-10-31T11:42:38;14.60;99.90
59847;DHT22;45728;48.788;2.302;2023-10-31T11:45:09;14.70;99.90
59847;DHT22;45728;48.788;2.302;2023-10-31T11:47:48;14.70;99.90
59847;DHT22;45728;48.788;2.302;2023-10-31T11:50:14;14.80;99.90
59847;DHT22;45728;48.788;2.302;2023-10-31T11:52:40;14.90;99.90
59847;DHT22;45728;48.788;2.302;2023-10-31T11:55:12;14.90;99.90
59847;DHT22;45728;48.788;2.302;2023-10-31T11:57:39;14.90;99.90
59847;DHT22;45728;48.788;2.302;2023-10-31T12:00:05;14.60;99.90
59847;DHT22;45728;48.788;2.302;2023-10-31T12:02:31;14.70;99.90
59847;DHT22;45728;48.788;2.302;2023-10-31T12:05:09;14.80;99.90
59847;DHT22;45728;48.788;2.302;2023-10-31T12:07:45;14.80;99.90
59847;DHT22;45728;48.788;2.302;2023-10-31T12:10:11;15.00;99.90
59847;DHT22;45728;48.788;2.302;2023-10-31T12:12:37;15.00;99.90
59847;DHT22;45728;48.788;2.302;2023-10-31T12:15:04;15.20;99.90
59847;DHT22;45728;48.788;2.302;2023-10-31T12:17:30;15.40;99.90
59847;DHT22;45728;48.788;2.302;2023-10-31T12:19:56;15.40;99.90
59847;DHT22;45728;48.788;2.302;2023-10-31T12:22:22;15.20;99.90
59847;DHT22;45728;48.788;2.302;2023-10-31T12:24:48;15.10;99.90
59847;DHT22;45728;48.788;2.302;2023-10-31T12:27:14;15.00;99.90
59847;DHT22;45728;48.788;2.302;2023-10-31T12:29:39;15.10;99.90
59847;DHT22;45728;48.788;2.302;2023-10-31T12:32:05;15.20;99.90
59847;DHT22;45728;48.788;2.302;2023-10-31T12:34:43;15.40;99.90
59847;DHT22;45728;48.788;2.302;2023-10-31T12:37:09;15.50;99.90
59847;DHT22;45728;48.788;2.302;2023-10-31T12:39:35;15.80;99.90
59847;DHT22;45728;48.788;2.302;2023-10-31T12:42:02;15.90;99.90
59847;DHT22;45728;48.788;2.302;2023-10-31T12:44:28;15.80;99.90
59847;DHT22;45728;48.788;2.302;2023-10-31T12:46:54;15.90;99.90
59847;DHT22;45728;48.788;2.302;2023-10-31T12:49:20;15.70;99.90
59847;DHT22;45728;48.788;2.302;2023-10-31T12:52:02;15.50;99.90
59847;DHT22;45728;48.788;2.302;2023-10-31T12:54:30;15.50;99.90
59847;DHT22;45728;48.788;2.302;2023-10-31T12:56:59;15.60;99.90
59847;DHT22;45728;48.788;2.302;2023-10-31T12:59:25;15.70;99.90
59847;DHT22;45728;48.788;2.302;2023-10-31T13:01:51;15.70;99.90
59847;DHT22;45728;48.788;2.302;2023-10-31T13:04:24;15.60;99.90
59847;DHT22;45728;48.788;2.302;2023-10-31T13:07:01;15.70;99.90
59847;DHT22;45728;48.788;2.302;2023-10-31T13:09:31;15.80;99.90
59847;DHT22;45728;48.788;2.302;2023-10-31T13:12:00;15.80;99.90
59847;DHT22;45728;48.788;2.302;2023-10-31T13:14:26;15.80;99.90
59847;DHT22;45728;48.788;2.302;2023-10-31T13:16:52;15.70;99.90
59847;DHT22;45728;48.788;2.302;2023-10-31T13:19:18;15.60;99.90
59847;DHT22;45728;48.788;2.302;2023-10-31T13:21:44;15.50;99.90
59847;DHT22;45728;48.788;2.302;2023-10-31T13:24:10;15.50;99.90
59847;DHT22;45728;48.788;2.302;2023-10-31T13:26:36;15.40;99.90
59847;DHT22;45728;48.788;2.302;2023-10-31T13:29:02;15.40;99.90
59847;DHT22;45728;48.788;2.302;2023-10-31T13:31:28;15.40;99.90
59847;DHT22;45728;48.788;2.302;2023-10-31T13:33:54;15.40;99.90
59847;DHT22;45728;48.788;2.302;2023-10-31T13:36:20;15.40;99.90
59847;DHT22;45728;48.788;2.302;2023-10-31T13:38:46;15.50;99.90
59847;DHT22;45728;48.788;2.302;2023-10-31T13:41:14;15.50;99.90
59847;DHT22;45728;48.788;2.302;2023-10-31T13:43:40;15.50;99.90
59847;DHT22;45728;48.788;2.302;2023-10-31T13:46:06;15.60;99.90
59847;DHT22;45728;48.788;2.302;2023-10-31T13:48:32;15.70;99.90
59847;DHT22;45728;48.788;2.302;2023-10-31T13:50:58;15.60;99.90
59847;DHT22;45728;48.788;2.302;2023-10-31T13:53:24;15.60;99.90
59847;DHT22;45728;48.788;2.302;2023-10-31T13:55:49;15.60;99.90
59847;DHT22;45728;48.788;2.302;2023-10-31T13:58:15;15.70;99.90
59847;DHT22;45728;48.788;2.302;2023-10-31T14:00:43;15.70;99.90
59847;DHT22;45728;48.788;2.302;2023-10-31T14:03:09;15.50;99.90
59847;DHT22;45728;48.788;2.302;2023-10-31T14:05:35;15.50;99.90
59847;DHT22;45728;48.788;2.302;2023-10-31T14:08:01;15.50;99.90
59847;DHT22;45728;48.788;2.302;2023-10-31T14:10:28;15.40;99.90
59847;DHT22;45728;48.788;2.302;2023-10-31T14:12:54;15.40;99.90
59847;DHT22;45728;48.788;2.302;2023-10-31T14:15:21;15.40;99.90
59847;DHT22;45728;48.788;2.302;2023-10-31T14:17:48;15.40;99.90
59847;DHT22;45728;48.788;2.302;2023-10-31T14:20:14;15.40;99.90
59847;DHT22;45728;48.788;2.302;2023-10-31T14:22:40;15.30;99.90
59847;DHT22;45728;48.788;2.302;2023-10-31T14:25:06;15.40;99.90
59847;DHT22;45728;48.788;2.302;2023-10-31T14:27:33;15.40;99.90
59847;DHT22;45728;48.788;2.302;2023-10-31T14:29:59;15.40;99.90
59847;DHT22;45728;48.788;2.302;2023-10-31T14:32:25;15.40;99.90
59847;DHT22;45728;48.788;2.302;2023-10-31T14:34:51;15.40;99.90
59847;DHT22;45728;48.788;2.302;2023-10-31T14:37:17;15.50;99.90
59847;DHT22;45728;48.788;2.302;2023-10-31T14:39:42;15.40;99.90
59847;DHT22;45728;48.788;2.302;2023-10-31T14:42:09;15.40;99.90
59847;DHT22;45728;48.788;2.302;2023-10-31T14:44:35;15.40;99.90
59847;DHT22;45728;48.788;2.302;2023-10-31T14:47:01;15.40;99.90
59847;DHT22;45728;48.788;2.302;2023-10-31T14:49:26;15.40;99.90
59847;DHT22;45728;48.788;2.302;2023-10-31T14:51:52;15.40;99.90
59847;DHT22;45728;48.788;2.302;2023-10-31T14:54:18;15.50;99.90
59847;DHT22;45728;48.788;2.302;2023-10-31T14:56:46;15.40;99.90
59847;DHT22;45728;48.788;2.302;2023-10-31T14:59:12;15.50;99.90
59847;DHT22;45728;48.788;2.302;2023-10-31T15:01:38;15.50;99.90
59847;DHT22;45728;48.788;2.302;2023-10-31T15:04:04;15.50;99.90
59847;DHT22;45728;48.788;2.302;2023-10-31T15:06:29;15.60;99.90
59847;DHT22;45728;48.788;2.302;2023-10-31T15:08:55;15.50;99.90
59847;DHT22;45728;48.788;2.302;2023-10-31T15:11:21;15.60;99.90
59847;DHT22;45728;48.788;2.302;2023-10-31T15:13:48;15.50;99.90
59847;DHT22;45728;48.788;2.302;2023-10-31T15:16:14;15.50;99.90
59847;DHT22;45728;48.788;2.302;2023-10-31T15:18:40;15.50;99.90
59847;DHT22;45728;48.788;2.302;2023-10-31T15:21:06;15.40;99.90
59847;DHT22;45728;48.788;2.302;2023-10-31T15:23:32;15.40;99.90
59847;DHT22;45728;48.788;2.302;2023-10-31T15:25:58;15.40;99.90
59847;DHT22;45728;48.788;2.302;2023-10-31T15:28:24;15.40;99.90
59847;DHT22;45728;48.788;2.302;2023-10-31T15:30:52;15.40;99.90
59847;DHT22;45728;48.788;2.302;2023-10-31T15:33:18;15.30;99.90
59847;DHT22;45728;48.788;2.302;2023-10-31T15:35:44;15.20;99.90